Latest Coastal Weather Observations for Mornington Island Airport

IDQ60701

Issued at 10:52 pm EST Friday 28 August 2015 (issued every 10 minutes, with the page automatically refreshed every 10 minutes)

About coastal observations | Map of coastal stations | Coastal observations for QLD | Marine services | Other Formats
Station Details ID: 029182 Name: MORNINGTON ISLAND AIRPORT Lat: -16.66 Lon: 139.17 Height: 9.0 m
Data from the previous 72 hours. | See also: Recent months at Mornington Island Airport
Date/Time
EST
Temp

°C
Wind Pressure Rain
since 9am
mm
Weather Cloud Vis
km
Sea
Height
m
Swell
Dir
 
Speed
knots
Gust
knots
hPa Trend Height
m
Period
s
Dir
28/10:30pm 22.5 N 4 5 1016.9 - 0.0 - - - - - - -
28/10:00pm 22.8 NNW 4 5 1016.7 - 0.0 - - - - - - -
28/09:30pm 23.0 NNW 4 5 1016.6 - 0.0 - - - - - - -
28/09:00pm 23.1 N 5 6 1016.5 - 0.0 - - - - - - -
28/08:30pm 23.4 N 5 6 1016.2 - 0.0 - - - - - - -
28/08:00pm 23.6 N 5 7 1016.0 - 0.0 - - - - - - -
28/07:30pm 23.9 N 4 7 1015.7 - 0.0 - - - - - - -
28/07:00pm 24.3 NNE 5 6 1015.4 - 0.0 - - - - - - -
28/06:30pm 25.0 N 6 7 1015.0 - 0.0 - - - - - - -
28/06:00pm 26.0 N 6 8 1014.7 - 0.0 - - - - - - -
28/05:30pm 25.9 NW 8 10 1014.6 - 0.0 - - - - - - -
28/05:00pm 26.9 E 4 7 1014.6 - 0.0 - - - - - - -
28/04:30pm 26.8 SE 8 10 1014.6 - 0.0 - - - - - - -
28/04:00pm 26.8 SSE 8 13 1014.6 - 0.0 - - - - - - -
28/03:30pm 26.9 SE 10 14 1014.5 - 0.0 - - - - - - -
28/03:00pm 27.5 SSE 10 14 1014.5 - 0.0 - - - - - - -
28/02:30pm 26.6 SSE 10 17 1014.9 - 0.0 - - - - - - -
28/02:00pm 27.0 SE 9 15 1015.2 - 0.0 - - - - - - -
28/01:30pm 26.8 SE 11 15 1015.6 - 0.0 - - - - - - -
28/01:00pm 26.4 SE 11 18 1016.2 - 0.0 - - - - - - -
28/12:30pm 26.3 SE 13 19 1016.8 - 0.0 - - - - - - -
28/12:00pm 25.7 SE 16 20 1017.2 - 0.0 - - - - - - -
28/11:30am 26.0 SE 15 22 1017.7 - 0.0 - - - - - - -
28/11:00am 25.8 SE 16 22 1018.0 - 0.0 - - - - - - -
28/10:30am 25.0 SE 16 25 1018.1 - 0.0 - - - - - - -
28/10:06am 25.2 SE 16 26 1018.3 - 0.0 - - - - - - -
28/10:00am 25.1 SE 17 26 1018.3 - 0.0 - - - - - - -
28/09:59am 25.1 SE 16 26 1018.3 - 0.0 - - - - - - -
28/09:30am 24.8 SE 17 23 1018.3 - 0.0 - - - - - - -
28/09:00am 24.9 SE 13 20 1018.1 - 0.0 - - - - - - -
28/08:30am 24.1 SE 12 18 1017.9 - 0.0 - - - - - - -
28/08:00am 23.7 SE 13 19 1017.4 - 0.0 - - - - - - -
28/07:30am 23.3 SE 12 19 1017.0 - 0.0 - - - - - - -
28/07:00am 23.0 SE 13 19 1016.7 - 0.0 - - - - - - -
28/06:30am 23.2 SE 12 18 1016.4 - 0.0 - - - - - - -
28/06:00am 23.2 SE 12 19 1016.2 - 0.0 - - - - - - -
28/05:30am 23.2 SE 10 15 1016.1 - 0.0 - - - - - - -
28/05:00am 23.4 SSE 10 17 1015.8 - 0.0 - - - - - - -
28/04:30am 23.5 SSE 10 17 1016.0 - 0.0 - - - - - - -
28/04:00am 23.7 SE 9 14 1016.0 - 0.0 - - - - - - -
28/03:30am 23.2 SSE 7 13 1015.9 - 0.0 - - - - - - -
28/03:00am 22.5 SSW 5 8 1016.0 - 0.0 - - - - - - -
28/02:30am 23.0 SSW 3 6 1016.1 - 0.0 - - - - - - -
28/02:00am 23.2 SW 5 7 1016.3 - 0.0 - - - - - - -
28/01:30am 23.2 WSW 5 7 1016.4 - 0.0 - - - - - - -
28/01:00am 23.2 WSW 5 7 1016.6 - 0.0 - - - - - - -
28/12:30am 22.9 WSW 5 6 1016.7 - 0.0 - - - - - - -
28/12:00am 22.7 W 4 5 1016.8 - 0.0 - - - - - - -
 
Date/Time
EST
Temp

°C
Wind Pressure Rain
since 9am
mm
Weather Cloud Vis
km
Sea
Height
m
Swell
Dir
 
Speed
knots
Gust
knots
hPa Trend Height
m
Period
s
Dir
27/11:30pm 22.1 CALM 0 0 1016.8 - 0.0 - - - - - - -
27/11:00pm 22.1 CALM 0 0 1016.8 - 0.0 - - - - - - -
27/10:30pm 22.3 CALM 0 0 1016.7 - 0.0 - - - - - - -
27/10:00pm 22.5 WNW 2 4 1016.5 - 0.0 - - - - - - -
27/09:30pm 22.8 NNE 1 4 1016.5 - 0.0 - - - - - - -
27/09:00pm 23.1 NNE 3 5 1016.3 - 0.0 - - - - - - -
27/08:30pm 23.6 NNE 4 5 1016.0 - 0.0 - - - - - - -
27/08:00pm 24.2 NNE 5 7 1015.7 - 0.0 - - - - - - -
27/07:30pm 24.7 NNE 5 6 1015.4 - 0.0 - - - - - - -
27/07:00pm 25.2 NNE 6 7 1015.1 - 0.0 - - - - - - -
27/06:30pm 26.0 N 7 8 1014.7 - 0.0 - - - - - - -
27/06:00pm 28.2 ENE 5 7 1014.5 - 0.0 - - - - - - -
27/05:30pm 30.0 SE 6 9 1014.4 - 0.0 - - - - - - -
27/05:00pm 30.2 SE 7 10 1014.2 - 0.0 - - - - - - -
27/04:30pm 30.3 SE 7 9 1014.1 - 0.0 - - - - - - -
27/04:00pm 29.7 SE 6 10 1014.3 - 0.0 - - - - - - -
27/03:30pm 29.0 SE 7 10 1014.7 - 0.0 - - - - - - -
27/03:00pm 28.0 SE 8 14 1015.1 - 0.0 - - - - - - -
27/02:30pm 27.6 SSE 9 14 1015.4 - 0.0 - - - - - - -
27/02:00pm 27.7 SSE 10 14 1015.9 - 0.0 - - - - - - -
27/01:30pm 27.4 SSE 10 15 1016.5 - 0.0 - - - - - - -
27/01:00pm 26.5 SSE 10 14 1016.8 - 0.0 - - - - - - -
27/12:30pm 27.3 SSE 10 15 1017.2 - 0.0 - - - - - - -
27/12:00pm 27.5 SSE 9 14 1017.6 - 0.0 - - - - - - -
27/11:30am 28.0 SSE 8 13 1018.1 - 0.0 - - - - - - -
27/11:00am 27.4 SE 9 14 1018.3 - 0.0 - - - - - - -
27/10:30am 27.1 SSE 9 14 1018.6 - 0.0 - - - - - - -
27/10:00am 26.8 SE 8 11 1018.5 - 0.0 - - - - - - -
27/09:30am 25.2 SE 7 13 1018.7 - 0.0 - - - - - - -
27/09:00am 25.2 SSE 7 11 1018.4 - 0.0 - - - - - - -
27/08:30am 24.5 ESE 6 9 1018.2 - 0.0 - - - - - - -
27/08:00am 23.6 SE 6 10 1018.1 - 0.0 - - - - - - -
27/07:30am 23.4 SSE 6 11 1017.9 - 0.0 - - - - - - -
27/07:00am 22.9 SSE 5 7 1017.5 - 0.0 - - - - - - -
27/06:30am 22.8 W 4 6 1016.8 - 0.0 - - - - - - -
27/06:00am 22.6 WSW 7 9 1016.2 - 0.0 - - - - - - -
27/05:30am 23.1 WSW 7 13 1015.5 - 0.0 - - - - - - -
27/05:00am 23.5 W 7 9 1015.0 - 0.0 - - - - - - -
27/04:30am 23.2 W 6 8 1014.6 - 0.0 - - - - - - -
27/04:00am 23.3 WSW 6 8 1014.3 - 0.0 - - - - - - -
27/03:30am 23.3 WSW 6 8 1014.2 - 0.0 - - - - - - -
27/03:00am 23.3 W 6 8 1014.5 - 0.0 - - - - - - -
27/02:30am 23.3 W 5 6 1014.6 - 0.0 - - - - - - -
27/02:00am 23.3 W 6 7 1015.0 - 0.0 - - - - - - -
27/01:30am 23.4 WNW 5 6 1015.1 - 0.0 - - - - - - -
27/01:00am 23.4 WNW 6 7 1015.3 - 0.0 - - - - - - -
27/12:30am 23.7 NW 6 8 1015.5 - 0.0 - - - - - - -
27/12:00am 23.8 NNW 7 8 1015.8 - 0.0 - - - - - - -
 
Date/Time
EST
Temp

°C
Wind Pressure Rain
since 9am
mm
Weather Cloud Vis
km
Sea
Height
m
Swell
Dir
 
Speed
knots
Gust
knots
hPa Trend Height
m
Period
s
Dir
26/11:30pm 23.5 NNW 5 6 1015.9 - 0.0 - - - - - - -
26/11:00pm 23.6 N 5 7 1016.0 - 0.0 - - - - - - -
26/10:30pm 23.7 N 5 6 1016.1 - 0.0 - - - - - - -
26/10:00pm 23.8 N 5 7 1016.2 - 0.0 - - - - - - -
26/09:30pm 23.9 N 5 7 1016.0 - 0.0 - - - - - - -
26/09:00pm 23.9 NNE 5 6 1016.0 - 0.0 - - - - - - -
26/08:30pm 24.1 NNE 5 6 1015.9 - 0.0 - - - - - - -
26/08:00pm 24.3 N 5 6 1015.6 - 0.0 - - - - - - -
26/07:30pm 24.5 N 6 8 1015.3 - 0.0 - - - - - - -
26/07:00pm 24.7 N 6 9 1014.8 - 0.0 - - - - - - -
26/06:30pm 25.1 N 7 10 1014.5 - 0.0 - - - - - - -
26/06:00pm 26.0 N 9 12 1014.5 - 0.0 - - - - - - -
26/05:30pm 26.2 NNW 11 13 1014.4 - 0.0 - - - - - - -
26/05:00pm 26.7 N 10 13 1014.2 - 0.0 - - - - - - -
26/04:30pm 26.8 NNW 11 14 1014.0 - 0.0 - - - - - - -
26/04:00pm 27.4 NNW 10 17 1014.1 - 0.0 - - - - - - -
26/03:30pm 27.6 NNW 11 14 1014.3 - 0.0 - - - - - - -
26/03:00pm 27.8 NNW 11 15 1014.4 - 0.0 - - - - - - -
26/02:30pm 27.6 N 11 15 1014.7 - 0.0 - - - - - - -
26/02:00pm 27.9 NNW 13 19 1015.1 - 0.0 - - - - - - -
26/01:30pm 28.3 NNW 15 19 1015.4 - 0.0 - - - - - - -
26/01:00pm 28.3 NW 15 21 1015.9 - 0.0 - - - - - - -
26/12:30pm 28.1 NW 13 16 1016.5 - 0.0 - - - - - - -
26/12:00pm 27.3 NW 12 16 1016.8 - 0.0 - - - - - - -
26/11:30am 27.7 NW 11 15 1017.3 - 0.0 - - - - - - -
26/11:00am 27.0 NW 11 14 1017.5 - 0.0 - - - - - - -
26/10:30am 26.6 WNW 10 12 1018.0 - 0.0 - - - - - - -
26/10:00am 26.1 NW 10 11 1018.1 - 0.0 - - - - - - -
26/09:30am 26.3 NNW 6 9 1018.1 - 0.0 - - - - - - -
26/09:00am 25.4 NNW 6 8 1017.8 - 0.0 - - - - - - -
26/08:30am 24.9 N 6 8 1017.5 - 0.0 - - - - - - -
26/08:00am 23.4 NNE 4 5 1017.3 - 0.0 - - - - - - -
26/07:30am 22.4 NNE 3 4 1017.0 - 0.0 - - - - - - -
26/07:00am 22.0 NE 4 5 1017.0 - 0.0 - - - - - - -
26/06:30am 22.5 SE 8 11 1016.8 - 0.0 - - - - - - -
26/06:00am 22.6 E 4 6 1016.1 - 0.0 - - - - - - -
26/05:30am 22.6 N 7 11 1015.4 - 0.0 - - - - - - -
26/05:00am 22.7 W 4 5 1014.5 - 0.0 - - - - - - -
26/04:30am 22.8 WSW 4 6 1014.1 - 0.0 - - - - - - -
26/04:00am 22.9 WSW 5 7 1014.1 - 0.0 - - - - - - -
26/03:30am 23.0 WSW 5 7 1014.2 - 0.0 - - - - - - -
26/03:00am 23.0 WSW 5 7 1014.3 - 0.0 - - - - - - -
26/02:30am 23.1 W 6 7 1014.5 - 0.0 - - - - - - -
26/02:00am 23.1 WSW 6 8 1014.8 - 0.0 - - - - - - -
26/01:30am 23.2 WSW 6 7 1015.0 - 0.0 - - - - - - -
26/01:00am 23.3 W 6 8 1015.2 - 0.0 - - - - - - -
26/12:30am 23.4 W 6 8 1015.2 - 0.0 - - - - - - -
26/12:00am 23.4 W 6 7 1015.4 - 0.0 - - - - - - -
 
Date/Time
EST
Temp

°C
Wind Pressure Rain
since 9am
mm
Weather Cloud Vis
km
Sea
Height
m
Swell
Dir
 
Speed
knots
Gust
knots
hPa Trend Height
m
Period
s
Dir
25/11:30pm 23.4 W 5 6 1015.5 - 0.0 - - - - - - -
25/11:00pm 23.5 WNW 5 6 1015.8 - 0.0 - - - - - - -

Other Formats:

Comma delimited format used in spreadsheet applications
http://www.bom.gov.au/fwo/IDQ60701/IDQ60701.94254.axf

JavaScript Object Notation format (JSON) in row-major order
http://www.bom.gov.au/fwo/IDQ60701/IDQ60701.94254.json